Latest Weather Observations for Tamworth Airport

IDN60801

Issued at 12:34 pm EST Tuesday 21 April 2015 (issued every 30 minutes, with the page automatically refreshed every 10 minutes)

About weather observations | Map of weather stations | Latest weather observations for NSW | Other Formats
Station Details ID: 055325 Name: TAMWORTH AIRPORT AWS Lat: -31.07 Lon: 150.84 Height: 394.9 m
Data from the previous 72 hours. | See also: Recent months at Tamworth Airport
Date/Time
EST
Temp
°C
App
Temp
°C
Dew
Point
Rel
Hum
%
Delta-T
°C
Wind Press
QNH
hPa
Press
MSL
hPa
Rain
since 9 am
mm
Dir
 
Spd
km/h
Gust
km/h
Spd
kts
Gust
kts
21/12:30pm 10.5 7.0 8.8 89 0.9 NW 17 20 9 11 1016.8 1015.7 1.2
21/12:23pm 10.4 6.9 8.8 90 0.8 NW 17 20 9 11 1016.8 1015.7 1.2
21/12:00pm 10.0 6.4 8.3 89 0.8 NW 17 22 9 12 1017.1 1016.0 1.2
21/11:30am 10.1 6.5 8.5 90 0.8 NNW 17 22 9 12 1017.3 1016.3 1.0
21/11:00am 10.0 6.0 8.4 90 0.8 NW 19 24 10 13 1017.5 1016.5 1.0
21/10:30am 9.8 5.8 8.2 90 0.8 NNW 19 26 10 14 1017.6 1016.6 0.6
21/10:00am 10.0 6.4 8.4 90 0.8 NNW 17 22 9 12 1017.8 1016.8 0.4
21/09:30am 9.7 5.7 8.1 90 0.8 NW 19 26 10 14 1018.2 1017.1 0.4
21/09:00am 9.7 5.7 8.1 90 0.8 NNW 19 28 10 15 1018.5 1017.4 7.2
21/08:56am 9.8 6.2 8.2 90 0.8 NNW 17 22 9 12 1018.4 1017.3 7.2
21/08:51am 9.9 6.7 8.5 91 0.7 NW 15 22 8 12 1018.5 1017.4 7.2
21/08:40am 9.7 5.7 8.1 90 0.8 NW 19 24 10 13 1018.5 1017.4 7.0
21/08:30am 9.6 5.5 8.0 90 0.8 NW 19 24 10 13 1018.4 1017.3 7.0
21/08:11am 9.7 6.5 8.3 91 0.7 NW 15 20 8 11 1018.3 1017.2 7.0
21/08:00am 9.7 6.5 8.3 91 0.7 NW 15 19 8 10 1018.2 1017.1 7.0
21/07:30am 9.7 6.8 8.3 91 0.7 NNW 13 17 7 9 1017.8 1016.8 6.8
21/07:00am 9.6 7.5 8.2 91 0.7 NW 9 13 5 7 1017.7 1016.7 6.6
21/06:59am 9.6 7.5 8.2 91 0.7 NW 9 13 5 7 1017.7 1016.7 6.6
21/06:37am 9.3 5.9 7.7 90 0.8 WNW 15 20 8 11 1017.6 1016.6 6.4
21/06:30am 9.3 5.5 7.7 90 0.8 WNW 17 24 9 13 1017.6 1016.6 6.4
21/06:14am 9.4 6.0 7.8 90 0.8 NW 15 20 8 11 1017.7 1016.7 6.4
21/06:00am 9.4 6.0 7.8 90 0.8 NNW 15 20 8 11 1017.8 1016.8 6.4
21/05:39am 9.5 6.5 7.8 89 0.8 WNW 13 20 7 11 1017.8 1016.8 5.6
21/05:30am 9.6 6.3 7.9 89 0.8 WNW 15 20 8 11 1017.8 1016.8 5.4
21/05:15am 9.7 6.4 8.0 89 0.8 NW 15 19 8 10 1017.7 1016.7 5.4
21/05:00am 9.9 6.3 8.3 90 0.8 NW 17 22 9 12 1017.9 1016.9 5.4
21/04:55am 9.9 6.7 8.3 90 0.8 NW 15 20 8 11 1018.0 1017.0 5.4
21/04:30am 9.6 6.3 8.0 90 0.8 NW 15 20 8 11 1017.9 1016.9 5.4
21/04:17am 9.5 5.8 7.9 90 0.8 NW 17 24 9 13 1018.0 1017.0 5.4
21/04:09am 9.5 5.4 7.8 89 0.8 NW 19 26 10 14 1017.9 1016.9 5.4
21/04:00am 9.5 5.8 7.9 90 0.8 NW 17 26 9 14 1017.9 1016.9 5.4
21/03:31am 9.2 5.0 7.5 89 0.8 NW 19 22 10 12 1018.0 1017.0 4.4
21/03:30am 9.2 5.0 7.5 89 0.8 NW 19 22 10 12 1018.0 1017.0 4.4
21/03:16am 9.3 5.1 7.6 89 0.8 NW 19 24 10 13 1018.2 1017.1 4.0
21/03:00am 9.5 5.2 7.8 89 0.8 NW 20 28 11 15 1018.2 1017.1 3.4
21/02:51am 9.6 4.5 7.7 88 0.9 NNW 24 30 13 16 1018.2 1017.1 2.8
21/02:43am 9.6 4.4 7.2 85 1.2 NNW 24 33 13 18 1018.2 1017.1 2.4
21/02:30am 10.2 6.1 8.5 89 0.8 NNW 20 28 11 15 1018.0 1017.0 2.4
21/02:11am 11.0 8.4 9.4 90 0.8 N 13 17 7 9 1018.3 1017.2 2.4
21/02:09am 11.0 8.4 9.4 90 0.8 N 13 17 7 9 1018.3 1017.2 2.4
21/02:00am 11.0 8.0 9.4 90 0.8 N 15 17 8 9 1018.2 1017.1 2.4
21/01:30am 11.3 8.4 9.7 90 0.8 NNW 15 22 8 12 1018.5 1017.4 1.2
21/01:00am 11.9 9.8 9.8 87 1.1 NNW 11 17 6 9 1018.4 1017.3 0.0
21/12:30am 12.4 9.7 10.5 88 1.0 NW 15 20 8 11 1018.2 1017.1 0.0
21/12:09am 12.6 9.6 10.8 89 1.0 NW 17 20 9 11 1018.0 1017.0 0.0
21/12:00am 12.6 10.0 10.7 88 1.0 NW 15 20 8 11 1018.0 1017.0 0.0
 
Date/Time
EST
Temp
°C
App
Temp
°C
Dew
Point
Rel
Hum
%
Delta-T
°C
Wind Press
QNH
hPa
Press
MSL
hPa
Rain
since 9 am
mm
Dir
 
Spd
km/h
Gust
km/h
Spd
kts
Gust
kts
20/11:30pm 13.9 12.3 11.6 86 1.3 NW 11 17 6 9 1018.2 1017.1 0.0
20/11:10pm 14.0 12.8 11.5 85 1.4 WNW 9 13 5 7 1018.5 1017.4 0.0
20/11:00pm 14.1 12.9 11.6 85 1.4 W 9 13 5 7 1018.6 1017.5 0.0
20/10:58pm 14.1 12.9 11.6 85 1.4 W 9 13 5 7 1018.6 1017.5 0.0
20/10:30pm 14.1 12.6 11.8 86 1.3 NW 11 15 6 8 1018.7 1017.6 0.0
20/10:00pm 13.7 12.5 11.6 87 1.1 NW 9 11 5 6 1018.6 1017.5 0.0
20/09:34pm 14.0 12.4 11.5 85 1.4 NNW 11 13 6 7 1018.7 1017.6 0.0
20/09:30pm 14.1 13.0 11.8 86 1.3 N 9 13 5 7 1018.8 1017.7 0.0
20/09:00pm 14.3 13.5 11.8 85 1.4 NNE 7 11 4 6 1018.9 1017.8 0.0
20/08:30pm 14.2 13.5 11.9 86 1.3 N 7 11 4 6 1018.9 1017.8 0.0
20/08:10pm 14.0 13.3 11.5 85 1.4 N 6 7 3 4 1018.6 1017.5 0.0
20/08:02pm 14.1 13.2 11.4 84 1.5 N 7 11 4 6 1018.7 1017.6 0.0
20/08:00pm 14.2 13.3 11.5 84 1.5 NNE 7 11 4 6 1018.7 1017.6 0.0
20/07:48pm 14.3 13.1 11.6 84 1.5 NNE 9 13 5 7 1018.9 1017.8 0.0
20/07:30pm 14.7 13.5 11.7 82 1.6 N 9 11 5 6 1018.7 1017.6 0.0
20/07:00pm 14.7 13.9 11.7 82 1.6 N 7 11 4 6 1018.7 1017.6 0.0
20/06:30pm 15.2 14.6 11.6 79 2.0 N 6 11 3 6 1018.5 1017.4 0.0
20/06:00pm 15.4 13.1 11.8 79 2.0 NNW 15 22 8 12 1018.0 1017.0 0.0
20/05:30pm 15.8 13.2 12.0 78 2.1 NW 17 20 9 11 1017.9 1016.9 0.0
20/05:00pm 16.5 14.0 12.3 76 2.3 NNW 17 22 9 12 1017.9 1016.9 0.0
20/04:30pm 17.0 14.1 12.3 74 2.6 NNW 19 26 10 14 1017.6 1016.6 0.0
20/04:00pm 17.7 14.7 11.9 69 3.2 NW 19 24 10 13 1017.5 1016.5 0.0
20/03:30pm 19.2 16.9 12.9 67 3.6 NNW 17 22 9 12 1017.6 1016.6 0.0
20/03:00pm 19.0 16.9 12.5 66 3.7 NNW 15 20 8 11 1017.8 1016.8 0.0
20/02:30pm 18.8 17.3 13.0 69 3.3 NNW 13 17 7 9 1018.0 1017.0 0.0
20/02:00pm 18.7 17.1 12.9 69 3.3 N 13 20 7 11 1018.2 1017.1 0.0
20/01:30pm 18.6 17.5 12.1 66 3.7 NNW 9 20 5 11 1018.2 1017.1 0.0
20/01:00pm 19.2 17.9 9.9 55 5.0 E 7 11 4 6 1018.4 1017.3 0.0
20/12:30pm 18.8 18.2 10.4 58 4.6 ESE 4 11 2 6 1019.0 1017.9 0.0
20/12:00pm 18.2 16.4 10.8 62 4.1 S 11 15 6 8 1019.3 1018.2 0.0
20/11:30am 17.8 16.3 10.7 63 3.9 SSW 9 15 5 8 1019.7 1018.7 0.0
20/11:00am 17.3 14.9 10.0 62 3.9 S 13 17 7 9 1020.2 1019.2 0.0
20/10:30am 17.0 15.7 11.1 68 3.2 SE 9 15 5 8 1020.4 1019.4 0.0
20/10:00am 16.3 14.0 10.6 69 3.1 SSE 13 19 7 10 1020.8 1019.7 0.0
20/09:30am 15.5 13.9 11.5 77 2.2 SSE 11 15 6 8 1021.1 1020.0 0.0
20/09:00am 14.4 12.3 11.0 80 1.8 SE 13 17 7 9 1021.2 1020.1 5.4
20/08:54am 14.1 12.4 11.1 82 1.6 SE 11 15 6 8 1021.2 1020.1 5.4
20/08:30am 13.6 12.3 11.1 85 1.3 SSE 9 13 5 7 1021.4 1020.3 5.4
20/08:09am 13.3 11.5 10.8 85 1.3 S 11 15 6 8 1021.4 1020.3 5.4
20/08:00am 13.4 11.2 10.9 85 1.3 S 13 17 7 9 1021.5 1020.4 5.4
20/07:30am 12.7 11.3 10.9 89 1.0 SSE 9 13 5 7 1021.5 1020.4 5.4
20/07:00am 12.9 12.6 11.5 91 0.8 SSW 4 11 2 6 1021.3 1020.2 5.2
20/06:30am 12.6 12.2 11.2 91 0.8 WNW 4 6 2 3 1021.3 1020.2 5.0
20/06:28am 12.6 11.8 11.2 91 0.8 WNW 6 7 3 4 1021.2 1020.1 5.0
20/06:13am 12.6 11.7 11.2 91 0.8 NW 7 9 4 5 1021.2 1020.1 5.0
20/06:00am 12.4 11.6 11.0 91 0.7 WNW 6 7 3 4 1021.1 1020.0 5.0
20/05:30am 12.4 11.4 11.0 91 0.7 NNW 7 9 4 5 1021.1 1020.0 4.8
20/05:25am 12.4 11.4 11.0 91 0.7 NNW 7 9 4 5 1021.1 1020.0 4.8
20/05:00am 12.5 11.2 11.1 91 0.7 NW 9 11 5 6 1021.2 1020.1 4.6
20/04:30am 12.7 11.4 11.3 91 0.8 NNW 9 11 5 6 1021.1 1020.0 4.6
20/04:00am 13.0 12.2 11.6 91 0.8 NW 7 11 4 6 1021.0 1019.9 4.4
20/03:30am 13.4 12.3 12.0 91 0.8 N 9 11 5 6 1020.9 1019.8 3.6
20/03:15am 13.4 11.9 12.0 91 0.8 NNE 11 13 6 7 1020.9 1019.8 3.2
20/03:00am 13.5 12.4 12.1 91 0.8 NNE 9 11 5 6 1020.9 1019.8 3.2
20/02:40am 13.4 12.3 12.0 91 0.8 NNE 9 11 5 6 1021.1 1020.0 3.0
20/02:30am 13.5 12.8 12.1 91 0.8 NNE 7 9 4 5 1021.2 1020.1 3.0
20/02:00am 13.6 12.5 12.0 90 0.9 NNE 9 11 5 6 1021.1 1020.0 3.0
20/01:30am 14.0 13.9 12.2 89 1.0 ENE 4 9 2 5 1021.5 1020.4 2.2
20/01:00am 14.1 13.7 12.3 89 1.0 E 6 9 3 5 1021.5 1020.4 1.6
20/12:49am 14.1 13.2 12.5 90 0.9 E 9 13 5 7 1021.7 1020.7 1.2
20/12:30am 14.2 12.9 12.4 89 1.0 ESE 11 17 6 9 1021.8 1020.8 0.8
20/12:00am 14.2 11.3 12.2 88 1.1 ESE 19 22 10 12 1021.8 1020.8 0.4
 
Date/Time
EST
Temp
°C
App
Temp
°C
Dew
Point
Rel
Hum
%
Delta-T
°C
Wind Press
QNH
hPa
Press
MSL
hPa
Rain
since 9 am
mm
Dir
 
Spd
km/h
Gust
km/h
Spd
kts
Gust
kts
19/11:30pm 14.7 11.8 12.4 86 1.3 SE 19 26 10 14 1022.0 1021.0 0.2
19/11:24pm 14.9 12.0 12.4 85 1.4 SE 19 26 10 14 1022.0 1021.0 0.2
19/11:00pm 15.8 14.9 12.5 81 1.8 W 9 13 5 7 1021.9 1020.9 0.2
19/10:30pm 15.8 14.8 12.4 80 1.9 W 9 11 5 6 1022.0 1021.0 0.2
19/10:00pm 15.9 15.0 12.6 81 1.8 NW 9 11 5 6 1021.9 1020.9 0.2
19/09:30pm 16.0 15.3 13.3 84 1.5 NW 9 11 5 6 1021.9 1020.9 0.2
19/09:00pm 16.3 16.0 13.4 83 1.7 NNW 7 11 4 6 1021.8 1020.8 0.2
19/08:30pm 16.9 16.8 14.0 83 1.7 N 7 9 4 5 1021.6 1020.5 0.2
19/08:00pm 16.9 16.4 13.8 82 1.8 NNW 9 13 5 7 1021.5 1020.4 0.2
19/07:30pm 17.4 18.8 14.3 82 1.8 CALM 0 0 0 0 1021.1 1020.0 0.2
19/07:00pm 17.5 16.7 14.0 80 2.0 WNW 11 15 6 8 1020.9 1019.8 0.2
19/06:30pm 18.1 19.4 14.2 78 2.3 CALM 0 0 0 0 1020.5 1019.5 0.2
19/06:00pm 18.1 18.2 14.0 77 2.4 ESE 6 6 3 3 1020.4 1019.4 0.2
19/05:30pm 18.6 19.0 13.7 73 2.8 SSE 4 7 2 4 1020.0 1019.0 0.2
19/05:00pm 19.0 19.1 13.8 72 3.0 SW 6 7 3 4 1019.8 1018.8 0.2
19/04:30pm 19.3 19.1 13.7 70 3.3 SSW 7 11 4 6 1019.5 1018.5 0.2
19/04:00pm 19.3 19.3 13.7 70 3.3 WSW 6 11 3 6 1019.4 1018.3 0.2
19/03:30pm 18.1 18.2 15.4 84 1.6 SW 9 13 5 7 1019.3 1018.2 0.2
19/03:00pm 18.9 16.8 13.5 71 3.1 W 17 30 9 16 1019.2 1018.1 0.0
19/02:30pm 20.6 19.6 13.3 63 4.2 NW 11 17 6 9 1019.0 1017.9 0.0
19/02:00pm 20.3 19.8 12.8 62 4.3 WNW 7 13 4 7 1019.3 1018.2 0.0
19/01:30pm 20.4 19.5 12.6 61 4.5 NW 9 13 5 7 1019.4 1018.3 0.0
19/01:00pm 20.2 20.0 11.9 59 4.7 NNW 4 11 2 6 1019.3 1018.2 0.0
19/12:30pm 20.2 19.6 12.4 61 4.5 WNW 7 13 4 7 1019.9 1018.9 0.0
19/12:00pm 20.1 19.3 12.8 63 4.2 NW 9 13 5 7 1020.0 1019.0 0.0
19/11:30am 20.0 18.6 13.5 66 3.8 W 13 19 7 10 1020.6 1019.6 0.0
19/11:00am 19.6 18.0 13.8 69 3.4 W 15 19 8 10 1020.9 1019.8 0.0
19/10:30am 18.9 17.4 14.2 74 2.8 WNW 15 20 8 11 1020.8 1019.7 0.0
19/10:00am 19.2 17.2 13.8 71 3.1 W 17 20 9 11 1020.3 1019.3 0.0
19/09:30am 19.1 18.3 15.0 77 2.4 WNW 13 20 7 11 1020.6 1019.6 0.0
19/09:00am 18.3 17.5 15.0 81 2.0 WNW 13 19 7 10 1020.6 1019.6 15.4
19/08:30am 17.8 17.7 16.0 89 1.1 WNW 11 13 6 7 1020.3 1019.3 15.4
19/08:00am 16.9 17.3 15.2 90 1.0 WSW 7 11 4 6 1020.0 1019.0 15.4
19/07:30am 16.4 17.6 14.8 90 0.9 WSW 2 9 1 5 1019.7 1018.7 15.4
19/07:00am 16.1 17.5 14.5 90 0.9 CALM 0 4 0 2 1019.1 1018.0 15.4
19/06:30am 15.9 15.9 14.3 90 0.9 WSW 7 9 4 5 1019.0 1017.9 15.4
19/06:00am 16.1 17.5 14.5 90 0.9 CALM 0 0 0 0 1018.4 1017.3 15.4
19/05:30am 16.2 16.6 14.7 91 0.9 NW 6 7 3 4 1018.3 1017.2 15.4
19/05:03am 16.3 15.8 14.8 91 0.9 NNE 11 15 6 8 1017.6 1016.6 15.4
19/05:00am 16.3 15.8 14.8 91 0.9 NNE 11 13 6 7 1017.9 1016.9 15.4
19/04:44am 16.3 15.8 14.8 91 0.9 NNE 11 15 6 8 1018.2 1017.1 15.2
19/04:30am 16.3 15.8 14.8 91 0.9 NE 11 15 6 8 1017.8 1016.8 15.0
19/04:22am 16.2 16.0 14.6 90 0.9 NE 9 11 5 6 1017.8 1016.8 14.8
19/04:00am 16.2 16.4 14.6 90 0.9 NE 7 9 4 5 1018.2 1017.1 14.6
19/03:30am 16.1 17.5 14.5 90 0.9 CALM 0 0 0 0 1018.0 1017.0 14.4
19/03:25am 16.1 17.2 14.5 90 0.9 NE 2 7 1 4 1018.0 1017.0 14.4
19/03:00am 16.0 16.2 14.2 89 1.0 ENE 6 7 3 4 1017.8 1016.8 14.2
19/02:43am 16.0 16.2 14.2 89 1.0 NNE 6 7 3 4 1017.9 1016.9 14.2
19/02:30am 16.0 17.3 14.2 89 1.0 CALM 0 0 0 0 1018.2 1017.1 13.8
19/02:00am 16.2 16.2 14.2 88 1.2 NNW 7 9 4 5 1018.6 1017.5 9.8
19/01:32am 16.4 15.6 14.1 86 1.3 WNW 11 24 6 13 1018.8 1017.7 4.8
19/01:30am 16.5 16.5 14.2 86 1.3 W 7 19 4 10 1018.7 1017.6 4.6
19/01:00am 16.8 17.0 14.3 85 1.5 SW 6 9 3 5 1018.6 1017.5 4.0
19/12:57am 16.8 16.8 14.3 85 1.5 SW 7 11 4 6 1018.6 1017.5 4.0
19/12:40am 17.1 16.0 14.2 83 1.7 SW 13 19 7 10 1018.5 1017.4 3.4
19/12:30am 17.5 16.1 14.6 83 1.7 SW 15 20 8 11 1018.3 1017.2 2.6
19/12:00am 17.6 16.0 14.9 84 1.6 WSW 17 24 9 13 1018.5 1017.4 2.6
 
Date/Time
EST
Temp
°C
App
Temp
°C
Dew
Point
Rel
Hum
%
Delta-T
°C
Wind Press
QNH
hPa
Press
MSL
hPa
Rain
since 9 am
mm
Dir
 
Spd
km/h
Gust
km/h
Spd
kts
Gust
kts
18/11:30pm 19.7 18.7 15.6 77 2.5 N 15 20 8 11 1017.9 1016.9 2.2
18/11:00pm 19.8 18.3 15.4 76 2.6 N 17 24 9 13 1017.9 1016.9 2.2
18/10:30pm 19.9 18.7 15.1 74 2.9 N 15 20 8 11 1018.4 1017.3 2.2
18/10:16pm 19.4 18.7 15.3 77 2.5 NNW 13 15 7 8 1018.4 1017.3 2.2
18/10:00pm 18.9 17.8 14.2 74 2.8 NW 13 17 7 9 1018.5 1017.4 2.2
18/09:56pm 19.5 18.8 14.3 72 3.1 NNW 11 15 6 8 1018.5 1017.4 1.4
18/09:30pm 18.9 18.2 13.3 70 3.2 WNW 9 11 5 6 1018.5 1017.4 0.0
18/09:00pm 19.2 18.8 12.5 65 3.8 N 6 7 3 4 1018.4 1017.3 0.0
18/08:30pm 19.4 18.4 12.2 63 4.1 NNE 9 11 5 6 1017.9 1016.9 0.0
18/08:00pm 19.6 18.9 12.1 62 4.2 N 7 9 4 5 1018.2 1017.1 0.0
18/07:30pm 19.7 19.2 12.5 63 4.1 NNE 7 9 4 5 1017.9 1016.9 0.0
18/07:00pm 20.1 19.5 12.3 61 4.4 N 7 9 4 5 1017.8 1016.8 0.0
18/06:30pm 21.0 20.0 12.4 58 4.9 NNW 9 11 5 6 1017.8 1016.8 0.0
18/06:00pm 21.6 20.2 12.2 55 5.4 NNW 11 13 6 7 1017.7 1016.7 0.0
18/05:30pm 22.4 20.9 11.8 51 6.1 NNW 11 15 6 8 1017.6 1016.6 0.0
18/05:00pm 24.0 20.9 11.7 46 7.1 NNW 19 24 10 13 1017.7 1016.7 0.0
18/04:30pm 24.6 22.1 12.2 46 7.2 NNW 17 22 9 12 1017.6 1016.6 0.0
18/04:00pm 24.4 21.5 12.4 47 7.0 NNW 19 24 10 13 1017.6 1016.6 0.0
18/03:30pm 24.3 21.3 11.9 45 7.2 NNW 19 24 10 13 1018.0 1017.0 0.0
18/03:00pm 24.6 21.3 11.5 44 7.5 NNW 20 28 11 15 1018.3 1017.2 0.0
18/02:30pm 24.7 21.0 11.6 44 7.5 N 22 32 12 17 1018.4 1017.3 0.0
18/02:00pm 24.4 20.3 11.4 44 7.4 N 24 30 13 16 1018.7 1017.6 0.0
18/01:30pm 24.5 19.1 10.8 42 7.8 NNW 30 39 16 21 1019.1 1018.0 0.0
18/01:00pm 24.9 20.4 11.5 43 7.7 NNW 26 35 14 19 1019.4 1018.3 0.0

Other Formats:

Comma delimited format used in spreadsheet applications
http://www.bom.gov.au/fwo/IDN60801/IDN60801.95762.axf

JavaScript Object Notation format (JSON) in row-major order
http://www.bom.gov.au/fwo/IDN60801/IDN60801.95762.json